Chamberlain, SD

3:55 PM CDT on August 30, 2015 (GMT -0500)
IEM | | Change Station
CLOSE
Current Station
Personal Weather Station
Location: Chamberlain, SD
Elevation: 1466 ft
Nearby Weather Stations

Elev 1466 ft 43.80 °N, 99.34 °W | Updated 18 minutes ago

Clear
Clear
93 °F
Feels Like 94 °F
N
5
Wind Variable Wind from SW
Gusts 0.0 mph

Today
High -- | Low -- °F
--% Chance of Precip.
Yesterday
High -- | Low -- °F
Precip. -- in
6:58 AM 8:16 PM
Full, 98% visible
Pressure 29.81 in
Visibility 10.0 miles
Clouds Clear
Heat Index 94 °F
Dew Point 63 °F
Humidity 36%
Rainfall in
Snow Depth Not available.
UV 7 out of 12
Pollen 11.00 out of 12
Air Quality Not available.
Flu Activity Not available.
METAR K9V9 302035Z AUTO 17013G18KT 10SM CLR 32/16 A2981 RMK AO2 T03150156
Pressure 29.81 in
Visibility 10.0 miles
Clouds Clear
Heat Index 94 °F
Dew Point 63 °F
Humidity 36%
Rainfall in
Snow Depth Not available.
UV 7 out of 12
Pollen 11.00 out of 12
Air Quality Not available.
Flu Activity Not available.
METAR K9V9 302035Z AUTO 17013G18KT 10SM CLR 32/16 A2981 RMK AO2 T03150156

10-Day Weather Forecast

×

Almanac

Astronomy

Aug. 30, 2015 Rise Set
Actual Time
Civil Twilight
Nautical Twilight
Astronomical Twilight
Moon
Length of Visible Light
Length of Day
Tomorrow will be .
, % of the Moon is Illuminated

Today's Extremes

State Highs State Lows

Community

WunderPhotos

Upload Photos

1,851,057 photos uploaded!

WunderBlogs® & News

Nearby

Air Quality

  Air Quality AQ Index Pollutant
Not available.

Snow Depth

Station Depth Elevation

Earthquake Activity

City Distance Mag. Time & Date
Minimum magnitude displayed is 2.5.

Coastal Water Temperatures

Place Temperature

Stations

Nearby Weather Stations

Station Location Temp. Windchill Dew Point Humidity Wind Precip. Elev Updated Type